createdAt,value
2019-05-18T00:00:40.838Z,24.90
2019-05-18T00:03:09.888Z,21.80
2019-05-18T00:05:38.777Z,24.17
2019-05-18T00:08:07.970Z,22.50
2019-05-18T00:10:36.955Z,22.97
2019-05-18T00:13:05.918Z,23.70
2019-05-18T00:15:34.988Z,26.97
2019-05-18T00:18:03.954Z,27.20
2019-05-18T00:20:32.851Z,27.43
2019-05-18T00:23:01.728Z,26.70
2019-05-18T00:25:30.673Z,23.47
2019-05-18T00:27:59.653Z,26.30
2019-05-18T00:30:28.586Z,24.70
2019-05-18T00:32:57.711Z,26.60
2019-05-18T00:35:26.632Z,24.40
2019-05-18T00:37:55.422Z,26.33
2019-05-18T00:40:24.361Z,28.07
2019-05-18T00:42:53.267Z,30.10
2019-05-18T00:45:23.122Z,29.07
2019-05-18T00:47:52.036Z,26.33
2019-05-18T00:50:21.008Z,26.60
2019-05-18T00:52:49.898Z,29.03
2019-05-18T00:55:18.819Z,30.07
2019-05-18T00:57:47.747Z,26.87
2019-05-18T01:00:16.872Z,26.83
2019-05-18T01:02:45.700Z,27.97
2019-05-18T01:05:15.050Z,29.57
2019-05-18T01:07:43.866Z,31.17
2019-05-18T01:10:13.969Z,29.67
2019-05-18T01:12:42.797Z,28.60
2019-05-18T01:15:12.256Z,31.03
2019-05-18T01:17:55.105Z,32.00
2019-05-18T01:20:12.417Z,29.20
2019-05-18T01:22:41.217Z,31.87
2019-05-18T01:25:10.281Z,27.63
2019-05-18T01:27:39.321Z,29.73
2019-05-18T01:30:09.837Z,34.23
2019-05-18T01:32:38.694Z,30.83
2019-05-18T01:35:07.924Z,32.70
2019-05-18T01:37:36.867Z,40.20
2019-05-18T01:40:06.612Z,32.33
2019-05-18T01:42:35.479Z,32.83
2019-05-18T01:45:16.387Z,34.60
2019-05-18T01:47:35.684Z,37.13
2019-05-18T01:50:04.937Z,34.20
2019-05-18T01:52:33.813Z,31.33
2019-05-18T01:55:03.099Z,30.73
2019-05-18T01:57:31.909Z,34.53
2019-05-18T02:00:00.733Z,31.40
2019-05-18T02:02:29.605Z,33.93
2019-05-18T02:04:58.471Z,32.30
2019-05-18T02:07:27.425Z,32.50
2019-05-18T02:09:56.246Z,34.67
2019-05-18T02:12:25.188Z,34.37
2019-05-18T02:14:54.035Z,40.60
2019-05-18T02:17:22.879Z,35.30
2019-05-18T02:19:51.711Z,37.13
2019-05-18T02:22:20.614Z,44.33
2019-05-18T02:24:49.567Z,36.23
2019-05-18T02:27:18.445Z,35.57
2019-05-18T02:29:47.249Z,35.77
2019-05-18T02:32:16.102Z,36.90
2019-05-18T02:34:45.078Z,39.17
2019-05-18T02:37:14.023Z,42.00
2019-05-18T02:39:43.002Z,34.77
2019-05-18T02:42:11.929Z,35.53
2019-05-18T02:44:40.939Z,37.87
2019-05-18T02:47:09.827Z,45.70
2019-05-18T02:49:38.742Z,38.50
2019-05-18T02:52:07.629Z,40.23
2019-05-18T02:54:36.530Z,43.60
2019-05-18T02:57:05.452Z,40.80
2019-05-18T02:59:34.281Z,44.63
2019-05-18T03:02:03.308Z,39.70
2019-05-18T03:04:32.233Z,40.17
2019-05-18T03:07:01.326Z,40.70
2019-05-18T03:09:30.384Z,45.90
2019-05-18T03:11:59.452Z,42.20
2019-05-18T03:14:28.462Z,43.27
2019-05-18T03:16:57.359Z,44.73
2019-05-18T03:19:26.297Z,45.23
2019-05-18T03:21:55.905Z,44.10
2019-05-18T03:24:24.683Z,44.20
2019-05-18T03:26:53.707Z,41.17
2019-05-18T03:29:22.672Z,42.70
2019-05-18T03:31:51.605Z,48.37
2019-05-18T03:34:20.555Z,49.60
2019-05-18T03:36:49.606Z,58.53
2019-05-18T03:39:18.580Z,45.60
2019-05-18T03:41:47.521Z,47.83
2019-05-18T03:44:16.453Z,45.53
2019-05-18T03:46:45.342Z,53.63
2019-05-18T03:49:26.330Z,46.50
2019-05-18T03:51:44.899Z,54.03
2019-05-18T03:54:13.727Z,48.20
2019-05-18T03:56:42.539Z,50.43
2019-05-18T03:59:11.529Z,47.83
2019-05-18T04:01:40.441Z,54.50
2019-05-18T04:04:09.449Z,43.97
2019-05-18T04:06:38.343Z,47.57
2019-05-18T04:09:07.403Z,46.67
2019-05-18T04:11:36.187Z,52.27
2019-05-18T04:14:08.109Z,50.07
2019-05-18T04:16:35.724Z,49.67
2019-05-18T04:19:04.614Z,50.27
2019-05-18T04:21:33.395Z,51.97
2019-05-18T04:24:02.242Z,47.23
2019-05-18T04:26:31.103Z,51.60
2019-05-18T04:28:59.943Z,56.70
2019-05-18T04:31:32.174Z,51.63
2019-05-18T04:33:59.302Z,53.03
2019-05-18T04:36:28.228Z,47.13
2019-05-18T04:38:57.533Z,49.13
2019-05-18T08:45:27.720Z,10.50
2019-05-18T08:54:05.525Z,9.07
2019-05-18T08:56:47.018Z,7.07
2019-05-18T08:59:28.179Z,7.97
2019-05-18T09:02:09.028Z,6.23
2019-05-18T09:04:50.448Z,6.03
2019-05-18T09:07:31.567Z,6.63
2019-05-18T09:10:12.222Z,8.23
2019-05-18T09:12:53.063Z,6.13
2019-05-18T09:15:34.087Z,4.37
2019-05-18T09:18:15.408Z,6.60
2019-05-18T09:20:56.551Z,9.53
2019-05-18T09:23:59.747Z,5.03
2019-05-18T09:26:28.342Z,9.93
2019-05-18T09:29:16.451Z,6.80
2019-05-18T09:32:04.271Z,7.63
2019-05-18T09:34:52.242Z,6.00
2019-05-18T09:37:40.453Z,6.60
2019-05-18T09:40:28.103Z,5.43
2019-05-18T09:43:16.259Z,6.63
2019-05-18T09:46:04.531Z,7.40
2019-05-18T09:48:52.707Z,5.50
2019-05-18T09:51:40.952Z,6.80
2019-05-18T09:54:29.199Z,6.33
2019-05-18T09:57:16.836Z,5.53
2019-05-18T10:00:05.549Z,5.70
2019-05-18T10:02:46.505Z,5.97
2019-05-18T10:05:15.698Z,4.93
2019-05-18T10:07:44.235Z,4.87
2019-05-18T10:10:13.838Z,4.47
2019-05-18T10:12:43.104Z,4.27
2019-05-18T10:15:15.463Z,5.20
2019-05-18T10:17:45.027Z,4.73
2019-05-18T10:20:15.244Z,4.53
2019-05-18T10:22:55.290Z,4.87
2019-05-18T10:25:17.562Z,4.90
2019-05-18T10:27:46.624Z,6.03
2019-05-18T10:30:16.248Z,4.23
2019-05-18T10:32:48.415Z,2.90
2019-05-18T10:35:21.890Z,3.37
2019-05-18T10:37:51.189Z,3.73
2019-05-18T10:40:21.423Z,3.60
2019-05-18T10:42:52.406Z,4.63
2019-05-18T10:45:21.787Z,3.40
2019-05-18T10:47:53.856Z,3.40
2019-05-18T10:50:31.280Z,3.73
2019-05-18T10:53:00.820Z,3.90
2019-05-18T10:55:30.062Z,4.23
2019-05-18T10:57:59.262Z,4.80
2019-05-18T11:00:30.076Z,3.83
2019-05-18T11:03:11.667Z,5.00
2019-05-18T11:05:53.230Z,4.83
2019-05-18T11:08:23.658Z,4.23
2019-05-18T11:11:00.622Z,4.87
2019-05-18T11:13:34.874Z,4.70
2019-05-18T11:16:04.252Z,5.77
2019-05-18T11:18:32.922Z,10.17
2019-05-18T11:21:02.406Z,5.27
2019-05-18T11:23:43.328Z,4.73
2019-05-18T11:26:05.753Z,4.50
2019-05-18T11:28:35.793Z,3.83
2019-05-18T11:31:05.360Z,3.73
2019-05-18T11:33:35.090Z,3.83
2019-05-18T11:36:04.473Z,4.47
2019-05-18T11:38:35.231Z,4.17
2019-05-18T11:41:07.299Z,4.03
2019-05-18T11:43:36.985Z,3.43
2019-05-18T11:46:06.261Z,5.00
2019-05-18T11:48:36.002Z,3.87
2019-05-18T11:51:06.033Z,4.27
2019-05-18T11:53:35.343Z,4.47
2019-05-18T11:56:04.919Z,4.13
2019-05-18T11:58:34.165Z,3.77
2019-05-18T12:01:03.960Z,3.37
2019-05-18T12:03:33.255Z,3.30
2019-05-18T12:06:03.212Z,4.20
2019-05-18T12:08:33.173Z,3.30
2019-05-18T12:11:03.765Z,3.53
2019-05-18T12:13:33.995Z,5.60
2019-05-18T12:16:04.110Z,3.87
2019-05-18T12:18:33.801Z,2.87
2019-05-18T12:21:03.137Z,4.27
2019-05-18T12:23:32.678Z,3.30
2019-05-18T12:26:02.265Z,4.00
2019-05-18T12:28:33.776Z,3.67
2019-05-18T12:31:03.186Z,4.10
2019-05-18T12:33:32.884Z,3.73
2019-05-18T12:36:02.318Z,3.10
2019-05-18T12:38:31.552Z,3.67
2019-05-18T12:41:03.049Z,3.37
2019-05-18T12:43:32.429Z,3.23
2019-05-18T12:46:01.573Z,2.87
2019-05-18T12:48:34.186Z,3.57
2019-05-18T12:51:06.919Z,2.60
2019-05-18T12:53:36.420Z,2.50
2019-05-18T12:56:05.571Z,2.50
2019-05-18T12:58:37.628Z,3.30
2019-05-18T13:01:09.345Z,2.97
2019-05-18T13:03:51.108Z,3.60
2019-05-18T13:06:21.866Z,2.30
2019-05-18T13:08:52.118Z,4.13
2019-05-18T13:11:24.534Z,2.60
2019-05-18T13:13:54.164Z,3.63
2019-05-18T13:16:23.181Z,2.43
2019-05-18T13:18:52.374Z,2.60
2019-05-18T13:21:21.451Z,2.90
2019-05-18T13:23:53.934Z,2.33
2019-05-18T13:26:26.021Z,2.53
2019-05-18T13:28:56.041Z,2.07
2019-05-18T13:31:26.833Z,3.00
2019-05-18T13:33:56.482Z,2.27
2019-05-18T13:36:26.584Z,2.97
2019-05-18T13:38:57.815Z,2.30
2019-05-18T13:41:28.413Z,3.23
2019-05-18T13:43:57.650Z,2.57
2019-05-18T13:46:27.162Z,2.40
2019-05-18T13:48:56.301Z,2.87
2019-05-18T13:51:25.234Z,2.47
2019-05-18T13:53:54.459Z,4.07
2019-05-18T13:56:23.847Z,3.33
2019-05-18T13:58:52.903Z,2.33
2019-05-18T14:01:22.123Z,2.63
2019-05-18T14:03:50.822Z,2.50
2019-05-18T14:06:20.295Z,2.50
2019-05-18T14:08:49.898Z,2.70
2019-05-18T14:11:19.006Z,2.37
2019-05-18T14:13:48.239Z,2.80
2019-05-18T14:16:17.604Z,3.33
2019-05-18T14:18:46.637Z,2.43
2019-05-18T14:21:16.386Z,2.87
2019-05-18T14:23:45.523Z,2.20
2019-05-18T14:26:14.773Z,2.50
2019-05-18T14:28:43.921Z,2.60
2019-05-18T14:31:13.003Z,2.60
2019-05-18T14:33:42.298Z,2.50
2019-05-18T14:36:11.416Z,2.60
2019-05-18T14:38:40.503Z,2.47
2019-05-18T14:41:29.155Z,3.10
2019-05-18T14:44:10.605Z,2.53
2019-05-18T14:46:40.205Z,2.50
2019-05-18T14:49:58.485Z,2.37
2019-05-18T14:52:35.037Z,2.50
2019-05-18T14:55:15.217Z,3.10
2019-05-18T14:57:59.702Z,2.93
2019-05-18T15:00:34.427Z,2.30
2019-05-18T15:03:06.883Z,2.60
2019-05-18T15:05:38.771Z,2.50
2019-05-18T15:08:09.692Z,2.73
2019-05-18T15:11:11.325Z,2.50
2019-05-18T15:17:55.609Z,2.37
2019-05-18T15:20:25.701Z,2.20
2019-05-18T15:22:56.563Z,2.47
2019-05-18T15:25:25.738Z,2.07
2019-05-18T15:27:59.257Z,2.40
2019-05-18T15:30:28.712Z,2.47
2019-05-18T15:32:58.297Z,2.10
2019-05-18T15:35:27.854Z,3.33
2019-05-18T15:37:58.002Z,2.30
2019-05-18T15:40:29.110Z,6.53
2019-05-18T16:07:33.763Z,2.60
2019-05-18T16:14:37.222Z,3.23
2019-05-18T16:21:22.649Z,2.53
2019-05-18T16:54:41.183Z,2.17
2019-05-18T17:04:28.599Z,2.90
2019-05-18T17:15:54.049Z,2.33
2019-05-18T18:57:40.081Z,3.97
2019-05-18T19:00:10.245Z,6.37
2019-05-18T19:02:46.196Z,6.80
2019-05-18T19:05:50.431Z,6.70
2019-05-18T19:08:22.920Z,6.27
2019-05-18T19:11:09.432Z,5.83
2019-05-18T19:13:46.305Z,5.70
2019-05-18T19:16:24.856Z,8.53
2019-05-18T19:18:58.282Z,4.70
2019-05-18T19:21:28.811Z,4.77
2019-05-18T19:23:59.091Z,5.43
2019-05-18T19:26:40.622Z,5.80
2019-05-18T19:29:14.299Z,5.90
2019-05-18T19:31:53.001Z,6.27
2019-05-18T19:34:27.607Z,6.00
2019-05-18T19:37:01.236Z,7.67
2019-05-18T19:39:34.266Z,6.70
2019-05-18T19:42:08.337Z,9.20
2019-05-18T19:44:45.711Z,10.73
2019-05-18T19:47:22.345Z,8.07
2019-05-18T19:49:57.183Z,7.13
2019-05-18T19:52:29.214Z,6.03
2019-05-18T19:55:03.052Z,7.93
2019-05-18T19:57:33.415Z,10.53
2019-05-18T20:00:03.301Z,7.70
2019-05-18T20:02:48.446Z,7.40
2019-05-18T20:05:18.222Z,7.53
2019-05-18T20:07:48.379Z,7.00
2019-05-18T20:10:18.762Z,6.23
2019-05-18T20:12:48.748Z,8.53
2019-05-18T20:15:24.952Z,16.53
2019-05-18T20:18:31.725Z,12.67
2019-05-18T20:21:01.118Z,10.27
2019-05-18T20:23:32.007Z,9.00
2019-05-18T20:26:03.216Z,9.93
2019-05-18T20:28:32.810Z,8.80
2019-05-18T20:31:15.453Z,11.50
2019-05-18T20:33:47.222Z,8.10
2019-05-18T20:36:20.202Z,7.37
2019-05-18T20:38:52.514Z,7.70
2019-05-18T20:41:38.018Z,11.30
2019-05-18T20:44:26.954Z,10.17
2019-05-18T20:46:59.333Z,11.50
2019-05-18T20:49:29.764Z,8.70
2019-05-18T20:51:59.391Z,10.13
2019-05-18T20:54:29.528Z,8.87
2019-05-18T20:56:59.502Z,8.77
2019-05-18T20:59:29.042Z,10.80
2019-05-18T21:01:58.558Z,9.43
2019-05-18T21:04:32.844Z,10.57
2019-05-18T21:07:03.185Z,9.10
2019-05-18T21:09:33.292Z,11.40
2019-05-18T21:12:04.366Z,9.70
2019-05-18T21:14:34.070Z,8.83
2019-05-18T21:17:07.819Z,10.20
2019-05-18T21:19:40.275Z,10.73
2019-05-18T21:22:28.698Z,8.47
2019-05-18T21:25:03.422Z,11.07
2019-05-18T21:27:36.363Z,12.33
2019-05-18T21:30:08.907Z,10.37
2019-05-18T21:32:47.798Z,8.33
2019-05-18T21:35:39.817Z,9.93
2019-05-18T21:38:25.718Z,9.80
2019-05-18T21:41:07.543Z,9.60
2019-05-18T21:43:56.486Z,11.03
2019-05-18T21:46:56.173Z,13.40
2019-05-18T21:49:51.789Z,15.50
2019-05-18T21:52:49.731Z,12.50
2019-05-18T21:55:30.792Z,10.90
2019-05-18T21:58:12.220Z,13.33
2019-05-18T22:00:46.020Z,10.13
2019-05-18T22:03:19.748Z,9.70
2019-05-18T22:05:54.805Z,9.83
2019-05-18T22:08:30.723Z,9.80
2019-05-18T22:11:10.367Z,14.80
2019-05-18T22:13:48.417Z,11.80
2019-05-18T22:16:24.058Z,8.90
2019-05-18T22:19:12.225Z,12.07
2019-05-18T22:22:23.793Z,10.17
2019-05-18T22:24:52.270Z,11.63
2019-05-18T22:27:21.365Z,10.80
2019-05-18T22:29:51.018Z,9.77
2019-05-18T22:32:20.115Z,10.10
2019-05-18T22:34:49.113Z,11.53
2019-05-18T22:37:19.120Z,11.33
2019-05-18T22:39:48.105Z,15.70
2019-05-18T22:42:16.964Z,18.70
2019-05-18T22:44:45.929Z,21.47
2019-05-18T22:47:14.901Z,21.03
2019-05-18T22:49:43.740Z,12.00
2019-05-18T22:52:19.152Z,17.13
2019-05-18T22:54:48.200Z,13.50
2019-05-18T22:57:17.260Z,15.90
2019-05-18T22:59:46.197Z,16.37
2019-05-18T23:02:15.105Z,19.20
2019-05-18T23:04:44.068Z,15.43
2019-05-18T23:15:25.603Z,19.73
2019-05-18T23:25:39.810Z,18.20
2019-05-18T23:28:17.245Z,17.13
2019-05-18T23:30:47.302Z,19.00
2019-05-18T23:33:16.770Z,16.60
2019-05-18T23:35:50.275Z,16.07
2019-05-18T23:38:19.254Z,19.60
2019-05-18T23:40:52.766Z,16.13
2019-05-18T23:43:46.498Z,20.93
2019-05-18T23:46:21.619Z,21.97
2019-05-18T23:49:10.408Z,18.80
2019-05-18T23:51:48.202Z,17.70
